Time;durP1;ratioP1;P1;durP2;ratioP2;P2;SDS_P1;SDS_P2;PMS_P1;PMS_P2;Temp;Humidity;BMP_temperature;BMP_pressure;BME280_temperature;BME280_humidity;BME280_pressure;Samples;Min_cycle;Max_cycle;Signal;HPM_P1;HPM_P2
2023/11/22 00:00:09;;;;;;;9.23;1.45;;;;;;;7.97;100.00;102283.97;5043389;28;20384;-45
2023/11/22 00:02:37;;;;;;;6.65;1.73;;;;;;;7.96;100.00;102279.56;5046226;28;20071;-45
2023/11/22 00:05:05;;;;;;;4.22;2.65;;;;;;;7.98;100.00;102271.00;5046483;28;20045;-45
2023/11/22 00:07:33;;;;;;;8.65;3.35;;;;;;;7.96;100.00;102270.47;5032466;28;20470;-45
2023/11/22 00:10:01;;;;;;;2.70;1.30;;;;;;;7.96;100.00;102260.28;5047143;28;20052;-47
2023/11/22 00:12:36;;;;;;;4.75;1.52;;;;;;;7.97;100.00;102261.91;5046714;28;20048;-47
2023/11/22 00:15:07;;;;;;;3.95;1.50;;;;;;;7.97;100.00;102253.63;5045427;28;20099;-45
2023/11/22 00:17:35;;;;;;;6.47;1.25;;;;;;;7.98;100.00;102258.03;5045865;28;20490;-42
2023/11/22 00:20:05;;;;;;;5.35;1.50;;;;;;;7.99;100.00;102256.91;5044624;28;20063;-43
2023/11/22 00:22:33;;;;;;;2.70;1.10;;;;;;;7.98;100.00;102258.03;5046590;28;20048;-43
2023/11/22 00:25:01;;;;;;;5.65;1.42;;;;;;;8.00;100.00;102249.47;5046017;28;20056;-43
2023/11/22 00:27:32;;;;;;;3.40;1.27;;;;;;;8.05;100.00;102257.69;5046049;28;20049;-43
2023/11/22 00:30:00;;;;;;;5.00;1.25;;;;;;;8.06;100.00;102250.22;5046735;28;20053;-43
2023/11/22 00:32:27;;;;;;;4.88;2.30;;;;;;;8.09;100.00;102249.66;5046136;28;20052;-43
2023/11/22 00:34:54;;;;;;;5.43;1.75;;;;;;;8.09;100.00;102252.41;5046156;28;20033;-43
2023/11/22 00:37:22;;;;;;;3.00;1.52;;;;;;;8.10;100.00;102234.75;5038085;28;20060;-44
2023/11/22 00:39:49;;;;;;;6.25;2.13;;;;;;;8.09;100.00;102228.41;5046447;28;20419;-43
2023/11/22 00:42:20;;;;;;;2.78;1.30;;;;;;;8.10;100.00;102232.78;5046552;28;20037;-43
2023/11/22 00:44:48;;;;;;;6.22;3.08;;;;;;;8.11;100.00;102217.91;5046172;28;20053;-43
2023/11/22 00:47:16;;;;;;;5.25;1.75;;;;;;;8.13;100.00;102206.59;5046233;28;20084;-43
2023/11/22 00:49:44;;;;;;;2.95;1.25;;;;;;;8.16;100.00;102208.72;5044129;28;20053;-43
2023/11/22 00:52:12;;;;;;;4.70;1.90;;;;;;;8.18;100.00;102212.84;5046078;28;20055;-42
2023/11/22 00:54:40;;;;;;;6.20;1.40;;;;;;;8.20;100.00;102204.28;5046607;28;20045;-43
2023/11/22 00:57:07;;;;;;;5.85;1.75;;;;;;;8.23;100.00;102204.53;5046540;28;20049;-44
2023/11/22 00:59:35;;;;;;;3.67;1.60;;;;;;;8.26;100.00;102203.13;5045866;28;20049;-42
2023/11/22 01:02:02;;;;;;;3.40;1.10;;;;;;;8.26;100.00;102198.41;5046308;28;20049;-43
2023/11/22 01:04:33;;;;;;;5.90;1.63;;;;;;;8.29;100.00;102210.81;5045990;28;20037;-43
2023/11/22 01:07:01;;;;;;;3.20;1.48;;;;;;;8.35;100.00;102212.41;5046304;28;20104;-46
2023/11/22 01:09:30;;;;;;;6.60;1.48;;;;;;;8.37;100.00;102190.84;5046455;28;20052;-43
2023/11/22 01:11:58;;;;;;;10.88;1.73;;;;;;;8.39;100.00;102200.47;5043553;28;20525;-45
2023/11/22 01:14:26;;;;;;;5.07;1.52;;;;;;;8.41;100.00;102184.47;5035924;28;20056;-44
2023/11/22 01:16:54;;;;;;;4.57;1.50;;;;;;;8.43;100.00;102187.75;5046180;28;20057;-43
2023/11/22 01:19:21;;;;;;;2.58;1.50;;;;;;;8.48;100.00;102206.16;5041206;28;20045;-46
2023/11/22 01:21:48;;;;;;;4.93;1.95;;;;;;;8.49;100.00;102210.59;5043635;28;20045;-43
2023/11/22 01:24:16;;;;;;;3.67;1.77;;;;;;;8.50;100.00;102218.56;5045845;28;20395;-44
2023/11/22 01:26:43;;;;;;;8.65;2.15;;;;;;;8.52;100.00;102230.13;5045083;28;20037;-43
2023/11/22 01:29:12;;;;;;;3.55;1.73;;;;;;;8.54;100.00;102227.91;5049161;28;20049;-42
2023/11/22 01:31:39;;;;;;;3.08;2.10;;;;;;;8.57;100.00;102232.00;5049602;28;20526;-45
2023/11/22 01:34:06;;;;;;;2.60;1.58;;;;;;;8.57;100.00;102221.81;5049974;28;20041;-44
2023/11/22 01:36:42;;;;;;;4.68;2.85;;;;;;;8.57;100.00;102215.44;5049310;28;20045;-43
2023/11/22 01:39:12;;;;;;;5.75;2.15;;;;;;;8.57;100.00;102221.81;5049551;28;20049;-42
2023/11/22 01:41:41;;;;;;;2.83;2.22;;;;;;;8.58;100.00;102222.59;5036631;28;20100;-42
2023/11/22 01:44:09;;;;;;;8.20;3.50;;;;;;;8.57;100.00;102221.81;5049515;28;20044;-42
2023/11/22 01:46:37;;;;;;;8.45;2.22;;;;;;;8.56;100.00;102220.16;5049180;28;20522;-43
2023/11/22 01:49:04;;;;;;;5.05;2.35;;;;;;;8.57;100.00;102215.44;5049412;28;20052;-43
2023/11/22 01:51:32;;;;;;;4.63;2.58;;;;;;;8.57;100.00;102215.44;5049084;28;20049;-44
2023/11/22 01:54:00;;;;;;;6.85;2.78;;;;;;;8.58;100.00;102214.31;5049216;28;20063;-43
2023/11/22 01:56:28;;;;;;;12.13;3.83;;;;;;;8.57;100.00;102193.38;5049039;28;20041;-43
2023/11/22 01:58:56;;;;;;;5.97;1.90;;;;;;;8.56;100.00;102197.22;5049008;28;20037;-43
2023/11/22 02:01:30;;;;;;;6.00;1.98;;;;;;;8.57;100.00;102193.38;5031317;28;20419;-42
2023/11/22 02:03:58;;;;;;;4.93;2.20;;;;;;;8.58;100.00;102170.16;5048486;28;20383;-42
2023/11/22 02:06:25;;;;;;;4.28;2.25;;;;;;;8.58;100.00;102159.94;5049109;28;20049;-42
2023/11/22 02:08:53;;;;;;;1.83;1.70;;;;;;;8.58;100.00;102148.88;5049200;28;20049;-42
2023/11/22 02:11:22;;;;;;;3.65;1.98;;;;;;;8.58;100.00;102139.78;5049576;28;20045;-42
2023/11/22 02:13:49;;;;;;;3.45;2.13;;;;;;;8.59;100.00;102146.97;5030437;28;20502;-43
2023/11/22 02:16:18;;;;;;;4.43;2.50;;;;;;;8.60;100.00;102145.84;5031340;28;20403;-43
2023/11/22 02:18:47;;;;;;;2.28;1.73;;;;;;;8.61;100.00;102143.88;5048793;28;20053;-46
2023/11/22 02:21:18;;;;;;;1.77;1.67;;;;;;;8.62;100.00;102126.22;5024005;28;20419;-43
2023/11/22 02:23:46;;;;;;;3.22;1.90;;;;;;;8.63;100.00;102120.38;5014961;28;20518;-43
2023/11/22 02:26:15;;;;;;;4.03;1.65;;;;;;;8.64;100.00;102111.00;5046591;28;20403;-42
2023/11/22 02:28:42;;;;;;;2.90;1.77;;;;;;;8.66;100.00;102117.03;5047064;28;20049;-44
2023/11/22 02:31:10;;;;;;;3.72;1.98;;;;;;;8.68;100.00;102123.09;5047221;28;20041;-43
2023/11/22 02:33:37;;;;;;;4.68;2.40;;;;;;;8.67;100.00;102126.97;5048229;28;20052;-43
2023/11/22 02:36:04;;;;;;;5.13;2.20;;;;;;;8.67;100.00;102115.09;5048532;28;20057;-43
2023/11/22 02:38:32;;;;;;;4.43;1.98;;;;;;;8.69;100.00;102108.16;5048176;28;20045;-42
2023/11/22 02:41:00;;;;;;;2.30;1.80;;;;;;;8.69;100.00;102088.81;5047255;28;20057;-42
2023/11/22 02:43:27;;;;;;;4.07;2.05;;;;;;;8.69;100.00;102093.53;5047858;28;20053;-44
2023/11/22 02:45:54;;;;;;;3.78;1.40;;;;;;;8.69;100.00;102102.63;5047753;28;20048;-42
2023/11/22 02:48:22;;;;;;;6.50;1.42;;;;;;;8.71;100.00;102094.88;5048199;28;20060;-43
2023/11/22 02:50:49;;;;;;;3.22;2.05;;;;;;;8.71;100.00;102083.81;5047133;28;20482;-42
2023/11/22 02:53:17;;;;;;;4.40;1.50;;;;;;;8.73;100.00;102102.88;5048418;28;20414;-44
2023/11/22 02:55:45;;;;;;;3.03;1.40;;;;;;;8.73;100.00;102098.16;5047359;28;20056;-42
2023/11/22 02:58:12;;;;;;;1.58;1.40;;;;;;;8.75;100.00;102108.91;5048146;28;20514;-45
2023/11/22 03:00:41;;;;;;;3.70;1.67;;;;;;;8.75;100.00;102101.44;5138341;22;20019;-43
2023/11/22 03:03:10;;;;;;;2.22;1.10;;;;;;;8.76;100.00;102086.53;5026881;28;20057;-44
2023/11/22 03:05:37;;;;;;;3.42;1.70;;;;;;;8.76;100.00;102097.56;5027383;28;20507;-43
2023/11/22 03:08:07;;;;;;;2.55;1.65;;;;;;;8.77;100.00;102101.94;5028374;28;20044;-43
2023/11/22 03:10:35;;;;;;;3.25;1.33;;;;;;;8.79;100.00;102102.47;5027149;28;20435;-43
2023/11/22 03:13:04;;;;;;;3.20;1.10;;;;;;;8.79;100.00;102108.00;5027300;28;20411;-43
2023/11/22 03:15:31;;;;;;;8.43;4.38;;;;;;;8.80;100.00;102106.88;5027671;28;20041;-43
2023/11/22 03:17:59;;;;;;;1.92;1.50;;;;;;;8.82;100.00;102106.56;5027715;28;20406;-43
2023/11/22 03:20:27;;;;;;;2.88;1.60;;;;;;;8.82;100.00;102107.38;5022191;28;20052;-43
2023/11/22 03:22:55;;;;;;;3.65;1.60;;;;;;;8.83;100.00;102111.81;5026349;28;20060;-44
2023/11/22 03:25:23;;;;;;;3.13;1.40;;;;;;;8.83;100.00;102114.56;5027266;28;20050;-49
2023/11/22 03:27:51;;;;;;;2.92;2.13;;;;;;;8.84;100.00;102098.81;5027412;28;20061;-45
2023/11/22 03:30:19;;;;;;;5.28;2.00;;;;;;;8.82;100.00;102135.00;5023226;28;20038;-43
2023/11/22 03:32:47;;;;;;;2.58;2.33;;;;;;;8.81;100.00;102151.88;5027040;28;20060;-45
2023/11/22 03:35:14;;;;;;;2.50;1.63;;;;;;;8.81;100.00;102149.97;5027757;28;20604;-42
2023/11/22 03:37:42;;;;;;;5.13;1.90;;;;;;;8.81;100.00;102154.66;5017307;28;20494;-43
2023/11/22 03:40:10;;;;;;;2.85;1.95;;;;;;;8.80;100.00;102159.34;5027588;28;20518;-42
2023/11/22 03:42:38;;;;;;;3.47;2.13;;;;;;;8.80;100.00;102114.34;5014717;28;20049;-45
2023/11/22 03:45:07;;;;;;;3.53;1.63;;;;;;;8.79;100.00;102110.75;5027260;28;20506;-42
2023/11/22 03:47:37;;;;;;;1.92;1.77;;;;;;;8.80;100.00;102133.66;5001172;28;20049;-42
2023/11/22 03:50:06;;;;;;;1.58;1.48;;;;;;;8.79;100.00;102119.03;5026798;28;20056;-48
2023/11/22 03:52:34;;;;;;;4.80;1.73;;;;;;;8.80;100.00;102120.69;5022125;28;20086;-43
2023/11/22 03:55:02;;;;;;;5.75;1.77;;;;;;;8.79;100.00;102130.09;5018402;28;20057;-44
2023/11/22 03:57:29;;;;;;;1.92;1.55;;;;;;;8.79;100.00;102132.84;5025031;28;20056;-43
2023/11/22 03:59:57;;;;;;;2.80;1.58;;;;;;;8.79;100.00;102119.03;5027628;28;20048;-44
2023/11/22 04:02:24;;;;;;;3.42;1.48;;;;;;;8.79;100.00;102113.50;5008556;28;20693;-42
2023/11/22 04:04:52;;;;;;;2.63;1.77;;;;;;;8.78;100.00;102111.88;5027074;28;20053;-42
2023/11/22 04:07:19;;;;;;;2.58;1.45;;;;;;;8.77;100.00;102104.72;5027106;28;20041;-43
2023/11/22 04:09:48;;;;;;;2.33;1.58;;;;;;;8.77;100.00;102099.19;5023708;28;20053;-43
2023/11/22 04:12:15;;;;;;;2.92;2.33;;;;;;;8.75;100.00;102084.88;5026092;28;20041;-42
2023/11/22 04:14:42;;;;;;;4.82;1.70;;;;;;;8.76;100.00;102086.53;5026813;28;20384;-48
2023/11/22 04:17:10;;;;;;;2.72;1.70;;;;;;;8.76;100.00;102103.09;5025795;28;20049;-43
2023/11/22 04:19:38;;;;;;;1.90;1.58;;;;;;;8.74;100.00;102102.56;5025860;28;20049;-42
2023/11/22 04:22:05;;;;;;;4.40;2.35;;;;;;;8.74;100.00;102121.06;5024945;28;20792;-42
2023/11/22 04:24:33;;;;;;;4.28;1.65;;;;;;;8.75;100.00;102111.66;5026943;28;20064;-42
2023/11/22 04:27:01;;;;;;;3.78;1.45;;;;;;;8.76;100.00;102110.56;5027032;28;20053;-42
2023/11/22 04:29:28;;;;;;;3.65;1.30;;;;;;;8.76;100.00;102124.34;5025877;28;20054;-42
2023/11/22 04:31:56;;;;;;;3.40;1.35;;;;;;;8.77;100.00;102118.53;5025499;28;20060;-42
2023/11/22 04:34:23;;;;;;;1.40;1.30;;;;;;;8.78;100.00;102128.47;5026358;28;20064;-42
2023/11/22 04:36:51;;;;;;;1.42;1.33;;;;;;;8.79;100.00;102127.31;5008487;28;20049;-43
2023/11/22 04:39:18;;;;;;;2.28;2.03;;;;;;;8.79;100.00;102123.75;5021274;28;20076;-43
2023/11/22 04:41:45;;;;;;;1.38;1.27;;;;;;;8.79;100.00;102123.75;5026762;28;20049;-42
2023/11/22 04:44:13;;;;;;;3.92;1.15;;;;;;;8.80;100.00;102120.69;5026138;28;20053;-45
2023/11/22 04:46:40;;;;;;;7.07;1.17;;;;;;;8.80;100.00;102106.88;5026059;28;20907;-42
2023/11/22 04:49:07;;;;;;;4.53;1.15;;;;;;;8.82;100.00;102098.28;5026748;28;20041;-42
2023/11/22 04:51:34;;;;;;;1.40;1.02;;;;;;;8.82;100.00;102082.53;5008436;28;20534;-42
2023/11/22 04:54:02;;;;;;;2.35;1.45;;;;;;;8.84;100.00;102076.72;5026640;28;20052;-42
2023/11/22 04:56:30;;;;;;;0.95;0.95;;;;;;;8.84;100.00;102076.72;5022890;28;20503;-42
2023/11/22 04:58:57;;;;;;;2.85;1.50;;;;;;;8.85;100.00;102068.13;5015064;28;20064;-43
2023/11/22 05:01:25;;;;;;;1.63;0.93;;;;;;;8.86;100.00;102075.31;5025627;28;20407;-43
2023/11/22 05:03:53;;;;;;;1.85;1.60;;;;;;;8.87;100.00;102082.44;5006873;28;20053;-43
2023/11/22 05:06:20;;;;;;;0.73;0.70;;;;;;;8.88;100.00;102067.53;5030929;28;20060;-42
2023/11/22 05:08:48;;;;;;;3.45;0.80;;;;;;;8.90;100.00;102059.75;5029457;28;20387;-42
2023/11/22 05:11:15;;;;;;;3.05;0.52;;;;;;;8.90;100.00;102053.41;5029781;28;20049;-42
2023/11/22 05:13:43;;;;;;;0.95;0.60;;;;;;;8.91;100.00;102050.38;5008887;28;20511;-43
2023/11/22 05:16:10;;;;;;;2.40;0.63;;;;;;;8.93;100.00;102053.63;5029297;28;20076;-42
2023/11/22 05:18:38;;;;;;;1.50;0.70;;;;;;;8.95;100.00;102054.16;5027642;28;20407;-42
2023/11/22 05:21:05;;;;;;;0.50;0.40;;;;;;;8.96;100.00;102053.03;5029236;28;20065;-45
2023/11/22 05:23:33;;;;;;;1.75;0.60;;;;;;;8.97;100.00;102068.50;5029750;28;20056;-42
2023/11/22 05:26:00;;;;;;;1.02;0.40;;;;;;;8.99;100.00;102074.53;5029433;28;20046;-42
2023/11/22 05:28:28;;;;;;;3.30;0.80;;;;;;;9.00;100.00;102076.16;5029274;28;20053;-42
2023/11/22 05:30:55;;;;;;;3.83;0.60;;;;;;;9.02;100.00;102078.63;5026569;28;20411;-43
2023/11/22 05:33:23;;;;;;;2.50;0.55;;;;;;;9.02;100.00;102082.22;5027572;28;20056;-43
2023/11/22 05:35:51;;;;;;;4.65;0.50;;;;;;;9.04;100.00;102071.69;5030129;28;20049;-43
2023/11/22 05:38:18;;;;;;;2.60;0.60;;;;;;;9.06;100.00;102088.75;5030224;28;20076;-43
2023/11/22 05:40:45;;;;;;;1.33;0.63;;;;;;;9.07;100.00;102095.13;5029521;28;20041;-42
2023/11/22 05:43:13;;;;;;;0.85;0.50;;;;;;;9.09;100.00;102113.03;5030135;28;20503;-42
2023/11/22 05:45:40;;;;;;;3.08;0.70;;;;;;;9.11;100.00;102113.53;5029773;28;20052;-43
2023/11/22 05:48:07;;;;;;;1.92;0.90;;;;;;;9.12;100.00;102111.59;5029798;28;20446;-42
2023/11/22 05:50:35;;;;;;;1.35;0.93;;;;;;;9.14;100.00;102109.34;5029079;28;20045;-49
2023/11/22 05:53:02;;;;;;;1.85;0.70;;;;;;;9.14;100.00;102099.13;5019907;28;20053;-46
2023/11/22 05:55:30;;;;;;;2.88;1.20;;;;;;;9.15;100.00;102091.66;5029186;28;20607;-42
2023/11/22 05:57:57;;;;;;;4.57;0.90;;;;;;;9.14;100.00;102099.13;5029908;28;20049;-42
2023/11/22 06:00:26;;;;;;;1.80;0.55;;;;;;;9.15;100.00;102095.25;5029314;28;20060;-42
2023/11/22 06:02:57;;;;;;;6.18;1.25;;;;;;;9.15;100.00;102089.72;5030330;28;20064;-44
2023/11/22 06:05:25;;;;;;;2.33;1.00;;;;;;;9.15;100.00;102081.44;5025963;28;20097;-43
2023/11/22 06:07:52;;;;;;;2.40;0.80;;;;;;;9.14;100.00;102073.44;5029420;28;20045;-42
2023/11/22 06:10:19;;;;;;;2.38;1.25;;;;;;;9.14;100.00;102074.25;5029478;28;20080;-43
2023/11/22 06:12:47;;;;;;;2.50;1.73;;;;;;;9.15;100.00;102073.16;5029673;28;20064;-43
2023/11/22 06:15:16;;;;;;;1.55;0.80;;;;;;;9.14;100.00;102070.66;5028638;28;20034;-42
2023/11/22 06:17:43;;;;;;;7.88;1.00;;;;;;;9.15;100.00;102081.44;5027901;28;20069;-42
2023/11/22 06:20:11;;;;;;;2.00;1.10;;;;;;;9.14;100.00;102077.03;5023363;28;20046;-42
2023/11/22 06:22:40;;;;;;;8.38;0.93;;;;;;;9.14;100.00;102077.03;5021030;28;20498;-42
2023/11/22 06:25:08;;;;;;;3.05;0.85;;;;;;;9.15;100.00;102086.97;5026557;28;20388;-43
2023/11/22 06:27:35;;;;;;;2.40;1.10;;;;;;;9.16;100.00;102082.22;5022983;28;20049;-43
2023/11/22 06:30:03;;;;;;;2.60;1.00;;;;;;;9.14;100.00;102082.56;5026242;28;20099;-44
2023/11/22 06:32:30;;;;;;;2.35;1.40;;;;;;;9.16;100.00;102087.75;5024927;28;20041;-41
2023/11/22 06:34:58;;;;;;;9.88;3.25;;;;;;;9.16;100.00;102083.06;5026842;28;20053;-44
2023/11/22 06:37:25;;;;;;;5.70;2.45;;;;;;;9.17;100.00;102086.66;5026666;28;20052;-43
2023/11/22 06:39:53;;;;;;;6.35;1.15;;;;;;;9.18;100.00;102097.41;5009609;28;20685;-42
2023/11/22 06:42:21;;;;;;;2.80;1.08;;;;;;;9.17;100.00;102087.47;5027453;28;20511;-43
2023/11/22 06:44:48;;;;;;;3.25;0.93;;;;;;;9.18;100.00;102094.66;5024483;28;20706;-43
2023/11/22 06:47:15;;;;;;;3.30;0.95;;;;;;;9.18;100.00;102091.88;5026878;28;20141;-42
2023/11/22 06:49:43;;;;;;;5.47;1.35;;;;;;;9.18;100.00;102105.69;5025923;28;20503;-43
2023/11/22 06:52:11;;;;;;;6.13;1.30;;;;;;;9.18;100.00;102097.41;5024910;28;20435;-43
2023/11/22 06:54:38;;;;;;;2.08;1.10;;;;;;;9.18;100.00;102093.81;5014937;28;20045;-45
2023/11/22 06:57:05;;;;;;;4.68;1.85;;;;;;;9.19;100.00;102096.28;5025714;28;20049;-46
2023/11/22 06:59:32;;;;;;;4.93;1.20;;;;;;;9.19;100.00;102101.81;5025934;28;20069;-45
2023/11/22 07:02:00;;;;;;;3.33;1.70;;;;;;;9.19;100.00;102096.28;5026068;28;20049;-45
2023/11/22 07:04:27;;;;;;;5.45;1.88;;;;;;;9.21;100.00;102095.16;5023741;28;20072;-44
2023/11/22 07:06:55;;;;;;;3.15;1.35;;;;;;;9.21;100.00;102097.94;5026290;28;20056;-48
2023/11/22 07:09:24;;;;;;;3.03;1.80;;;;;;;9.21;100.00;102114.50;5026306;28;20056;-45
2023/11/22 07:11:52;;;;;;;4.60;1.85;;;;;;;9.21;100.00;102111.75;5025753;28;20045;-45
2023/11/22 07:14:20;;;;;;;5.65;2.00;;;;;;;9.22;100.00;102116.13;5025878;28;20049;-45
2023/11/22 07:16:47;;;;;;;5.68;1.80;;;;;;;9.22;100.00;102114.19;5026807;28;20053;-45
2023/11/22 07:19:16;;;;;;;2.17;1.73;;;;;;;9.22;100.00;102116.13;5024688;28;20533;-45
2023/11/22 07:21:44;;;;;;;1.75;1.40;;;;;;;9.22;100.00;102116.13;5026116;28;20045;-45
2023/11/22 07:24:14;;;;;;;7.47;1.58;;;;;;;9.21;100.00;102118.09;5021098;28;20049;-43
2023/11/22 07:26:44;;;;;;;5.38;2.40;;;;;;;9.22;100.00;102110.59;5026144;28;20172;-42
2023/11/22 07:29:12;;;;;;;3.92;1.75;;;;;;;9.23;100.00;102113.06;5024390;28;20053;-43
2023/11/22 07:31:39;;;;;;;3.55;1.83;;;;;;;9.23;100.00;102109.50;5024686;28;20606;-43
2023/11/22 07:34:08;;;;;;;5.35;1.80;;;;;;;9.22;100.00;102116.94;5019600;28;20065;-42
2023/11/22 07:36:37;;;;;;;5.78;1.67;;;;;;;9.24;100.00;102119.44;5023000;28;20050;-43
2023/11/22 07:39:05;;;;;;;3.83;2.20;;;;;;;9.23;100.00;102123.31;5019870;28;20060;-41
2023/11/22 07:41:34;;;;;;;9.07;2.08;;;;;;;9.25;100.00;102123.81;5024368;28;20046;-42
2023/11/22 07:44:02;;;;;;;8.85;2.20;;;;;;;9.25;100.00;102115.53;5014425;28;20555;-44
2023/11/22 07:46:30;;;;;;;4.60;1.95;;;;;;;9.26;100.00;102114.41;5008469;28;20057;-45
2023/11/22 07:48:57;;;;;;;8.75;3.00;;;;;;;9.26;100.00;102112.47;5026504;28;20541;-46
2023/11/22 07:51:25;;;;;;;5.72;1.95;;;;;;;9.26;100.00;102106.94;5016655;28;20069;-44
2023/11/22 07:53:52;;;;;;;7.85;2.20;;;;;;;9.29;100.00;102122.09;5025854;28;20061;-45
2023/11/22 07:56:20;;;;;;;8.82;2.95;;;;;;;9.30;100.00;102101.63;5026323;28;20392;-42
2023/11/22 07:58:47;;;;;;;7.35;2.20;;;;;;;9.31;100.00;102103.25;5025307;28;20152;-42
2023/11/22 08:01:15;;;;;;;7.28;2.50;;;;;;;9.32;100.00;102105.72;5019290;28;20054;-44
2023/11/22 08:03:45;;;;;;;10.95;2.30;;;;;;;9.32;100.00;102105.72;5023877;28;20056;-42
2023/11/22 08:06:16;;;;;;;6.72;2.00;;;;;;;9.34;100.00;102108.19;5023691;28;20046;-43
2023/11/22 08:08:45;;;;;;;8.00;2.30;;;;;;;9.34;100.00;102102.66;5024953;28;20052;-42
2023/11/22 08:11:20;;;;;;;7.18;3.50;;;;;;;9.35;100.00;102098.75;5019562;28;20057;-44
2023/11/22 08:13:48;;;;;;;5.13;2.42;;;;;;;9.35;100.00;102109.81;5022199;28;20049;-42
2023/11/22 08:16:15;;;;;;;6.55;2.58;;;;;;;9.37;100.00;102124.16;5021474;28;20160;-43
2023/11/22 08:18:43;;;;;;;5.68;2.65;;;;;;;9.37;100.00;102113.13;5023794;28;20203;-42
2023/11/22 08:21:11;;;;;;;4.57;2.13;;;;;;;9.37;100.00;102124.16;5024586;28;20045;-44
2023/11/22 08:23:39;;;;;;;4.68;2.63;;;;;;;9.38;100.00;102125.78;5024871;28;20056;-44
2023/11/22 08:26:08;;;;;;;8.68;2.90;;;;;;;9.39;100.00;102127.44;5025059;28;20411;-41
2023/11/22 08:28:36;;;;;;;9.52;2.20;;;;;;;9.39;100.00;102127.44;5025260;28;20080;-42
2023/11/22 08:31:09;;;;;;;7.15;2.67;;;;;;;9.41;100.00;102130.72;5007444;28;20410;-42
2023/11/22 08:33:38;;;;;;;7.22;2.72;;;;;;;9.41;100.00;102125.19;5022785;28;20045;-42
2023/11/22 08:36:07;;;;;;;6.95;2.85;;;;;;;9.41;100.00;102119.66;5024657;28;20068;-44
2023/11/22 08:38:36;;;;;;;11.20;3.13;;;;;;;9.42;100.00;102113.84;5026577;28;20459;-42
2023/11/22 08:41:05;;;;;;;6.65;3.20;;;;;;;9.44;100.00;102113.53;5011253;28;20057;-44
2023/11/22 08:43:34;;;;;;;7.30;2.65;;;;;;;9.46;100.00;102133.38;5029102;28;20872;-42
2023/11/22 08:46:06;;;;;;;4.10;2.38;;;;;;;9.47;100.00;102123.97;5028794;28;20041;-42
2023/11/22 08:48:41;;;;;;;5.82;2.90;;;;;;;9.48;100.00;102123.66;5028340;28;20045;-48
2023/11/22 08:51:10;;;;;;;8.70;3.13;;;;;;;9.50;100.00;102115.09;5028379;28;20931;-44
2023/11/22 08:53:38;;;;;;;8.88;2.38;;;;;;;9.52;100.00;102118.34;5026952;28;20042;-42
2023/11/22 08:56:05;;;;;;;5.55;2.13;;;;;;;9.52;100.00;102115.59;5017197;28;20416;-44
2023/11/22 08:58:33;;;;;;;6.55;2.25;;;;;;;9.55;100.00;102109.47;5022431;28;20054;-42
2023/11/22 09:01:03;;;;;;;5.68;2.22;;;;;;;9.57;100.00;102113.56;5028382;28;20057;-42
2023/11/22 09:03:32;;;;;;;5.90;1.80;;;;;;;9.60;100.00;102109.34;5028296;28;20798;-43
2023/11/22 09:06:00;;;;;;;5.10;2.28;;;;;;;9.62;100.00;102104.34;5024988;28;20827;-41
2023/11/22 09:08:29;;;;;;;7.78;2.30;;;;;;;9.64;100.00;102091.00;5028176;28;20057;-42
2023/11/22 09:10:57;;;;;;;8.98;2.70;;;;;;;9.65;100.00;102089.91;5028954;28;20064;-43
2023/11/22 09:13:25;;;;;;;13.18;2.80;;;;;;;9.68;100.00;102092.06;5025467;28;20050;-43
2023/11/22 09:15:52;;;;;;;4.13;2.10;;;;;;;9.70;100.00;102084.28;5028031;28;20054;-43
2023/11/22 09:18:21;;;;;;;5.97;2.10;;;;;;;9.72;100.00;102087.53;5028209;28;20052;-43
2023/11/22 09:20:49;;;;;;;5.22;2.35;;;;;;;9.72;100.00;102087.53;5021937;28;20034;-42
2023/11/22 09:23:16;;;;;;;4.13;2.38;;;;;;;9.74;100.00;102090.84;5028109;28;20553;-42
2023/11/22 09:25:44;;;;;;;6.78;2.17;;;;;;;9.75;100.00;102084.16;5028082;28;20049;-42
2023/11/22 09:28:13;;;;;;;8.73;2.42;;;;;;;9.76;100.00;102078.34;5025435;28;20046;-43
2023/11/22 09:30:45;;;;;;;3.38;1.75;;;;;;;9.78;100.00;102076.09;5021622;28;20544;-43
2023/11/22 09:33:14;;;;;;;5.30;1.92;;;;;;;9.80;100.00;102078.53;5026989;28;20498;-42
2023/11/22 09:35:44;;;;;;;7.35;1.95;;;;;;;9.82;100.00;102092.06;5027106;28;20371;-43
2023/11/22 09:38:12;;;;;;;3.05;1.58;;;;;;;9.84;100.00;102098.94;5028592;28;20054;-44
2023/11/22 09:40:43;;;;;;;5.22;1.67;;;;;;;9.86;100.00;102090.31;5006768;28;20054;-43
2023/11/22 09:43:20;;;;;;;6.40;2.15;;;;;;;9.87;100.00;102095.56;5026106;28;20623;-42
2023/11/22 09:45:48;;;;;;;3.38;1.67;;;;;;;9.88;100.00;102085.28;5027168;28;20061;-42
2023/11/22 09:48:24;;;;;;;4.35;1.27;;;;;;;9.88;100.00;102091.63;5017338;28;20053;-46
2023/11/22 09:51:17;;;;;;;3.22;1.90;;;;;;;9.89;100.00;102090.53;5020959;28;20599;-43
2023/11/22 09:54:04;;;;;;;2.22;1.40;;;;;;;9.92;100.00;102080.78;5027511;28;20061;-46
2023/11/22 09:56:32;;;;;;;5.00;1.58;;;;;;;9.92;100.00;102076.09;5026228;28;20053;-42
2023/11/22 09:59:03;;;;;;;2.22;1.33;;;;;;;9.94;100.00;102073.00;5028371;28;20054;-42
2023/11/22 10:01:31;;;;;;;2.03;1.55;;;;;;;9.97;100.00;102077.91;5021205;28;20056;-42
2023/11/22 10:03:59;;;;;;;4.55;1.75;;;;;;;9.98;100.00;102074.81;5026942;28;20053;-45
2023/11/22 10:06:31;;;;;;;3.80;1.45;;;;;;;10.01;100.00;102092.75;5027772;28;20052;-43
2023/11/22 10:08:58;;;;;;;3.65;1.20;;;;;;;10.02;100.00;102075.88;5027241;28;20053;-42
2023/11/22 10:11:29;;;;;;;3.10;1.02;;;;;;;10.05;100.00;102088.25;5026971;28;20503;-48
2023/11/22 10:13:57;;;;;;;4.13;1.48;;;;;;;10.08;100.00;102084.88;5026897;28;20064;-42
2023/11/22 10:16:24;;;;;;;2.67;1.60;;;;;;;10.10;100.00;102086.22;5026768;28;20034;-46
2023/11/22 10:18:51;;;;;;;6.60;2.70;;;;;;;10.15;100.00;102090.84;5027135;28;20056;-42
2023/11/22 10:21:24;;;;;;;2.13;1.42;;;;;;;10.18;100.00;102079.97;5025882;28;20053;-44
2023/11/22 10:23:56;;;;;;;2.75;1.42;;;;;;;10.21;100.00;102068.28;5027291;28;20522;-43
2023/11/22 10:26:25;;;;;;;;;;;;;;;10.22;100.00;102085.69;5026606;28;20049;-43
2023/11/22 10:28:56;;;;;;;1.88;1.27;;;;;;;10.23;100.00;102099.22;5026383;28;19925;-43
2023/11/22 10:31:25;;;;;;;5.03;1.65;;;;;;;10.25;100.00;102085.91;5027427;28;20053;-44
2023/11/22 10:33:55;;;;;;;3.72;1.83;;;;;;;10.28;100.00;102084.47;5026035;28;20050;-43
2023/11/22 10:36:23;;;;;;;3.50;1.75;;;;;;;10.28;100.00;102093.59;5022919;28;20038;-43
2023/11/22 10:38:51;;;;;;;3.15;1.67;;;;;;;10.29;100.00;102095.22;5000775;28;20520;-42
2023/11/22 10:41:22;;;;;;;4.03;1.88;;;;;;;10.30;100.00;102098.78;5026133;28;20048;-42
2023/11/22 10:43:55;;;;;;;2.05;1.88;;;;;;;10.32;100.00;102097.38;5026875;28;20053;-42
2023/11/22 10:46:27;;;;;;;3.95;1.83;;;;;;;10.33;100.00;102104.53;5026644;28;20049;-43
2023/11/22 10:48:56;;;;;;;2.92;2.40;;;;;;;10.35;100.00;102107.00;5026436;28;20076;-45
2023/11/22 10:51:37;;;;;;;3.30;2.20;;;;;;;10.34;100.00;102100.66;5026554;28;20042;-43
2023/11/22 10:54:07;;;;;;;2.28;1.92;;;;;;;10.34;100.00;102092.34;5013701;28;20403;-44
2023/11/22 10:56:46;;;;;;;3.58;1.95;;;;;;;10.37;100.00;102099.22;5026370;28;20053;-43
2023/11/22 10:59:15;;;;;;;1.95;1.85;;;;;;;10.37;100.00;102100.03;5019266;28;20703;-43
2023/11/22 11:01:48;;;;;;;5.68;2.30;;;;;;;10.38;100.00;102107.19;5025878;28;20054;-43
2023/11/22 11:04:23;;;;;;;3.90;1.95;;;;;;;10.38;100.00;102101.66;5008865;28;20053;-43
2023/11/22 11:06:57;;;;;;;2.00;1.90;;;;;;;10.42;100.00;102106.56;4996112;28;20064;-43
2023/11/22 11:09:31;;;;;;;3.15;1.88;;;;;;;10.43;100.00;102099.91;5014589;28;20052;-42
2023/11/22 11:11:59;;;;;;;2.30;2.10;;;;;;;10.43;100.00;102102.69;5026427;28;20050;-44
2023/11/22 11:14:28;;;;;;;2.78;2.00;;;;;;;10.43;100.00;102100.75;5026264;28;20046;-43
2023/11/22 11:16:58;;;;;;;1.73;1.48;;;;;;;10.44;100.00;102099.59;5025716;28;20045;-43
2023/11/22 11:19:27;;;;;;;;;;;;;;;10.41;100.00;102100.22;5026719;28;20061;-42
2023/11/22 11:21:57;;;;;;;1.88;1.55;;;;;;;10.42;100.00;102109.34;5026786;28;19931;-42
2023/11/22 11:24:24;;;;;;;2.88;1.63;;;;;;;10.41;100.00;102097.44;5022259;28;20049;-42
2023/11/22 11:26:53;;;;;;;3.65;2.80;;;;;;;10.44;100.00;102109.84;5025822;28;20064;-44
2023/11/22 11:29:31;;;;;;;2.53;1.25;;;;;;;10.46;100.00;102099.31;5024904;28;20057;-43